createdAt,value
2018-05-06T00:00:04.715Z,12.73
2018-05-06T00:02:32.973Z,12.78
2018-05-06T00:05:01.263Z,12.92
2018-05-06T00:07:29.548Z,12.82
2018-05-06T00:09:57.843Z,12.67
2018-05-06T00:12:26.190Z,12.64
2018-05-06T00:14:54.461Z,12.63
2018-05-06T00:17:22.757Z,12.63
2018-05-06T00:19:51.040Z,12.63
2018-05-06T00:22:19.366Z,12.53
2018-05-06T00:24:47.630Z,12.52
2018-05-06T00:27:15.946Z,12.42
2018-05-06T00:29:44.232Z,12.50
2018-05-06T00:32:12.508Z,12.39
2018-05-06T00:34:40.814Z,12.49
2018-05-06T00:37:09.087Z,12.32
2018-05-06T00:39:37.426Z,12.36
2018-05-06T00:42:05.640Z,12.35
2018-05-06T00:44:33.915Z,12.31
2018-05-06T00:47:02.190Z,12.37
2018-05-06T00:49:34.053Z,12.23
2018-05-06T00:52:02.374Z,12.15
2018-05-06T00:54:44.450Z,12.19
2018-05-06T00:57:12.772Z,12.00
2018-05-06T00:59:41.824Z,12.13
2018-05-06T01:02:10.124Z,12.19
2018-05-06T01:04:38.447Z,12.09
2018-05-06T01:07:06.728Z,12.03
2018-05-06T01:09:34.976Z,11.94
2018-05-06T01:12:04.031Z,11.89
2018-05-06T01:14:32.303Z,11.93
2018-05-06T01:17:00.589Z,11.86
2018-05-06T01:19:28.867Z,11.83
2018-05-06T01:21:57.184Z,11.77
2018-05-06T01:24:26.248Z,11.74
2018-05-06T01:26:54.543Z,11.85
2018-05-06T01:29:23.598Z,11.79
2018-05-06T01:31:51.887Z,11.70
2018-05-06T01:34:20.141Z,11.69
2018-05-06T01:36:48.446Z,11.70
2018-05-06T01:39:16.726Z,11.80
2018-05-06T01:41:45.005Z,11.68
2018-05-06T01:44:13.803Z,11.69
2018-05-06T01:46:42.099Z,11.65
2018-05-06T01:49:11.156Z,11.48
2018-05-06T01:51:39.452Z,11.46
2018-05-06T01:54:07.728Z,11.49
2018-05-06T01:56:36.034Z,11.43
2018-05-06T01:59:05.060Z,11.41
2018-05-06T02:01:33.336Z,11.43
2018-05-06T02:04:02.760Z,11.37
2018-05-06T02:06:31.278Z,11.33
2018-05-06T02:08:59.729Z,11.35
2018-05-06T02:11:28.063Z,11.39
2018-05-06T02:13:57.197Z,11.29
2018-05-06T02:16:25.529Z,11.28
2018-05-06T02:18:54.626Z,11.24
2018-05-06T02:21:25.888Z,11.24
2018-05-06T02:23:55.085Z,11.32
2018-05-06T02:26:24.387Z,11.28
2018-05-06T02:28:53.590Z,11.08
2018-05-06T02:31:21.914Z,11.06
2018-05-06T02:33:50.452Z,11.03
2018-05-06T02:36:18.971Z,11.00
2018-05-06T02:38:47.448Z,10.98
2018-05-06T02:41:16.081Z,11.05
2018-05-06T02:43:45.359Z,10.92
2018-05-06T02:46:13.798Z,10.99
2018-05-06T02:48:43.377Z,10.89
2018-05-06T02:51:11.878Z,10.82
2018-05-06T02:53:40.238Z,10.80
2018-05-06T02:56:09.855Z,10.79
2018-05-06T02:58:38.147Z,10.95
2018-05-06T03:01:06.442Z,10.89
2018-05-06T03:03:35.426Z,10.81
2018-05-06T03:06:03.798Z,10.77
2018-05-06T03:08:32.757Z,10.78
2018-05-06T03:11:01.132Z,10.78
2018-05-06T03:13:30.263Z,10.61
2018-05-06T03:15:59.491Z,10.72
2018-05-06T03:18:28.062Z,10.74
2018-05-06T03:20:56.381Z,10.72
2018-05-06T03:23:24.680Z,10.67
2018-05-06T03:25:52.978Z,10.69
2018-05-06T03:28:21.449Z,10.60
2018-05-06T03:30:49.777Z,10.73
2018-05-06T03:33:18.052Z,10.69
2018-05-06T03:35:47.483Z,10.57
2018-05-06T03:38:15.773Z,10.53
2018-05-06T03:40:45.131Z,10.63
2018-05-06T03:43:13.540Z,10.52
2018-05-06T03:45:41.895Z,10.53
2018-05-06T03:48:10.225Z,10.40
2018-05-06T03:50:40.178Z,10.58
2018-05-06T03:53:08.481Z,10.45
2018-05-06T03:55:36.795Z,10.44
2018-05-06T03:58:23.066Z,10.44
2018-05-06T04:00:51.385Z,10.30
2018-05-06T04:03:21.752Z,10.38
2018-05-06T04:05:50.050Z,10.41
2018-05-06T04:08:18.346Z,10.45
2018-05-06T04:10:46.625Z,10.40
2018-05-06T04:13:15.269Z,10.44
2018-05-06T04:15:43.681Z,10.44
2018-05-06T04:18:12.976Z,10.47
2018-05-06T04:20:41.381Z,10.44
2018-05-06T04:23:09.680Z,10.37
2018-05-06T04:25:38.045Z,10.42
2018-05-06T04:28:07.411Z,10.38
2018-05-06T04:30:35.657Z,10.46
2018-05-06T04:33:03.960Z,10.50
2018-05-06T04:35:32.241Z,10.47
2018-05-06T04:38:00.507Z,10.52
2018-05-06T04:40:28.790Z,10.46
2018-05-06T04:42:57.063Z,10.45
2018-05-06T04:45:25.772Z,10.49
2018-05-06T04:47:54.060Z,10.42
2018-05-06T04:50:22.315Z,10.38
2018-05-06T04:52:50.579Z,10.32
2018-05-06T04:55:19.609Z,10.27
2018-05-06T04:57:47.897Z,10.28
2018-05-06T05:00:16.665Z,10.41
2018-05-06T05:02:44.927Z,10.54
2018-05-06T05:05:13.200Z,10.60
2018-05-06T05:07:41.463Z,10.68
2018-05-06T05:10:10.627Z,10.68
2018-05-06T05:12:39.785Z,10.70
2018-05-06T05:15:08.161Z,10.81
2018-05-06T05:17:36.861Z,10.87
2018-05-06T05:20:05.275Z,11.00
2018-05-06T05:22:34.543Z,11.01
2018-05-06T05:25:03.824Z,10.97
2018-05-06T05:27:33.149Z,11.02
2018-05-06T05:30:02.413Z,11.08
2018-05-06T05:32:34.214Z,10.98
2018-05-06T05:35:02.569Z,11.18
2018-05-06T05:37:30.963Z,11.20
2018-05-06T05:39:59.374Z,11.27
2018-05-06T05:42:28.044Z,11.42
2018-05-06T05:44:56.420Z,11.51
2018-05-06T05:47:24.808Z,11.63
2018-05-06T05:49:53.475Z,11.71
2018-05-06T05:52:22.196Z,11.74
2018-05-06T05:54:50.530Z,11.84
2018-05-06T05:57:18.911Z,11.84
2018-05-06T05:59:49.172Z,11.94
2018-05-06T06:02:19.366Z,11.99
2018-05-06T06:04:47.756Z,12.11
2018-05-06T06:07:16.161Z,12.23
2018-05-06T06:09:44.570Z,12.40
2018-05-06T06:12:12.950Z,12.55
2018-05-06T06:14:42.213Z,12.67
2018-05-06T06:17:10.559Z,12.77
2018-05-06T06:19:38.987Z,12.89
2018-05-06T06:22:07.331Z,13.02
2018-05-06T06:24:45.862Z,13.15
2018-05-06T06:27:17.909Z,13.29
2018-05-06T06:29:46.300Z,13.47
2018-05-06T06:32:14.569Z,13.63
2018-05-06T06:34:42.851Z,13.76
2018-05-06T06:37:11.132Z,13.85
2018-05-06T06:39:39.396Z,13.92
2018-05-06T06:42:07.688Z,14.07
2018-05-06T06:44:36.013Z,14.21
2018-05-06T06:47:05.271Z,14.34
2018-05-06T06:49:37.356Z,14.37
2018-05-06T06:52:07.549Z,14.49
2018-05-06T06:54:36.855Z,14.64
2018-05-06T06:57:06.188Z,14.73
2018-05-06T06:59:36.368Z,14.85
2018-05-06T07:02:04.771Z,14.91
2018-05-06T07:04:33.175Z,15.02
2018-05-06T07:07:03.398Z,15.05
2018-05-06T07:09:35.442Z,15.10
2018-05-06T07:12:05.649Z,15.17
2018-05-06T07:14:34.081Z,15.28
2018-05-06T07:17:03.047Z,15.37
2018-05-06T07:19:32.382Z,15.44
2018-05-06T07:22:00.897Z,15.49
2018-05-06T07:24:31.233Z,15.55
2018-05-06T07:26:59.639Z,15.58
2018-05-06T07:29:28.017Z,15.67
2018-05-06T07:31:57.318Z,15.76
2018-05-06T07:34:25.691Z,15.90
2018-05-06T07:36:54.061Z,15.95
2018-05-06T07:39:22.468Z,15.98
2018-05-06T07:41:51.748Z,16.09
2018-05-06T07:44:20.035Z,16.14
2018-05-06T07:46:48.361Z,16.18
2018-05-06T07:49:16.652Z,16.28
2018-05-06T07:51:44.921Z,16.31
2018-05-06T07:54:13.225Z,16.43
2018-05-06T07:56:41.488Z,16.55
2018-05-06T07:59:09.800Z,16.62
2018-05-06T08:01:38.104Z,16.70
2018-05-06T08:04:06.375Z,16.75
2018-05-06T08:06:34.668Z,16.78
2018-05-06T08:09:03.035Z,16.87
2018-05-06T08:11:31.238Z,16.94
2018-05-06T08:14:02.227Z,17.02
2018-05-06T08:16:30.632Z,17.04
2018-05-06T08:18:59.582Z,17.16
2018-05-06T08:21:27.864Z,17.09
2018-05-06T08:23:56.141Z,17.25
2018-05-06T08:26:24.425Z,17.24
2018-05-06T08:28:52.695Z,17.33
2018-05-06T08:31:23.053Z,17.40
2018-05-06T08:33:53.271Z,17.45
2018-05-06T08:36:23.499Z,17.52
2018-05-06T08:38:53.697Z,17.57
2018-05-06T08:41:22.087Z,17.60
2018-05-06T08:43:50.473Z,17.67
2018-05-06T08:46:19.779Z,17.74
2018-05-06T08:48:48.151Z,17.78
2018-05-06T08:51:16.536Z,17.84
2018-05-06T08:53:44.917Z,17.92
2018-05-06T08:56:13.304Z,18.02
2018-05-06T08:58:42.054Z,18.13
2018-05-06T09:01:10.608Z,18.14
2018-05-06T09:03:39.394Z,18.18
2018-05-06T09:06:08.019Z,18.23
2018-05-06T09:08:36.685Z,18.38
2018-05-06T09:11:06.102Z,18.41
2018-05-06T09:13:34.725Z,18.53
2018-05-06T09:16:04.022Z,18.61
2018-05-06T09:18:33.352Z,18.63
2018-05-06T09:21:01.706Z,18.72
2018-05-06T09:23:38.682Z,18.83
2018-05-06T09:26:08.894Z,18.87
2018-05-06T09:28:39.150Z,18.98
2018-05-06T09:31:08.414Z,19.02
2018-05-06T09:33:36.822Z,19.02
2018-05-06T09:36:05.120Z,19.03
2018-05-06T09:38:33.392Z,19.00
2018-05-06T09:41:01.686Z,19.10
2018-05-06T09:43:30.024Z,19.17
2018-05-06T09:45:58.310Z,19.36
2018-05-06T09:48:26.634Z,19.40
2018-05-06T09:50:54.938Z,19.43
2018-05-06T09:53:23.220Z,19.47
2018-05-06T09:55:51.552Z,19.55
2018-05-06T09:58:19.840Z,19.61
2018-05-06T10:18:51.547Z,20.08
2018-05-06T10:39:24.472Z,20.68
2018-05-06T11:00:02.007Z,20.89
2018-05-06T11:20:39.627Z,21.32
2018-05-06T11:41:14.281Z,21.73
2018-05-06T12:01:51.401Z,22.18
2018-05-06T12:22:27.284Z,22.57
2018-05-06T12:43:02.868Z,22.82
2018-05-06T13:03:36.290Z,23.15
2018-05-06T13:24:13.406Z,23.81
2018-05-06T13:44:45.614Z,24.77
2018-05-06T14:05:22.221Z,25.80
2018-05-06T14:26:09.527Z,26.30
2018-05-06T14:46:57.540Z,27.29
2018-05-06T15:07:29.747Z,28.33
2018-05-06T15:28:01.936Z,29.29
2018-05-06T15:48:37.238Z,28.93
2018-05-06T15:54:12.095Z,28.29
2018-05-06T15:56:40.634Z,27.91
2018-05-06T15:59:08.933Z,27.68
2018-05-06T16:01:39.167Z,27.59
2018-05-06T16:04:16.403Z,27.24
2018-05-06T16:06:44.837Z,27.03
2018-05-06T16:09:13.215Z,26.85
2018-05-06T16:11:41.583Z,26.72
2018-05-06T16:14:10.040Z,26.64
2018-05-06T16:16:38.346Z,26.55
2018-05-06T16:19:10.398Z,26.61
2018-05-06T16:21:38.819Z,26.58
2018-05-06T16:24:07.155Z,26.58
2018-05-06T16:26:35.687Z,26.53
2018-05-06T16:29:04.673Z,26.44
2018-05-06T16:31:32.968Z,26.50
2018-05-06T16:34:02.013Z,26.49
2018-05-06T16:36:30.295Z,26.49
2018-05-06T16:38:58.584Z,26.34
2018-05-06T16:41:26.855Z,26.29
2018-05-06T16:43:55.131Z,26.40
2018-05-06T16:46:23.414Z,26.53
2018-05-06T16:48:51.679Z,26.59
2018-05-06T16:51:20.005Z,26.81
2018-05-06T16:53:48.328Z,27.20
2018-05-06T16:56:16.623Z,27.21
2018-05-06T16:58:45.683Z,27.15
2018-05-06T17:01:13.976Z,27.11
2018-05-06T17:03:43.045Z,26.99
2018-05-06T17:06:11.360Z,26.90
2018-05-06T17:08:40.406Z,26.84
2018-05-06T17:11:08.683Z,26.58
2018-05-06T17:13:36.972Z,26.30
2018-05-06T17:16:05.221Z,26.06
2018-05-06T17:18:33.516Z,25.83
2018-05-06T17:21:01.790Z,25.65
2018-05-06T17:23:30.054Z,25.54
2018-05-06T17:25:58.363Z,25.33
2018-05-06T17:28:26.635Z,25.26
2018-05-06T17:30:54.927Z,25.15
2018-05-06T17:33:23.230Z,24.98
2018-05-06T17:35:52.250Z,24.92
2018-05-06T17:38:20.524Z,24.83
2018-05-06T17:40:49.622Z,24.75
2018-05-06T17:43:18.649Z,24.58
2018-05-06T17:45:46.917Z,24.52
2018-05-06T17:48:15.224Z,24.43
2018-05-06T17:50:43.511Z,24.27
2018-05-06T17:53:11.786Z,24.18
2018-05-06T17:55:40.110Z,24.08
2018-05-06T17:58:08.395Z,24.00
2018-05-06T18:00:36.781Z,23.75
2018-05-06T18:03:05.053Z,23.71
2018-05-06T18:05:33.325Z,23.71
2018-05-06T18:08:01.621Z,23.63
2018-05-06T18:10:29.897Z,23.65
2018-05-06T18:12:58.181Z,23.58
2018-05-06T18:15:26.476Z,23.49
2018-05-06T18:17:54.757Z,23.37
2018-05-06T18:20:23.070Z,23.30
2018-05-06T18:22:52.096Z,23.23
2018-05-06T18:25:20.376Z,23.12
2018-05-06T18:27:48.664Z,22.96
2018-05-06T18:30:16.933Z,22.68
2018-05-06T18:32:45.182Z,22.29
2018-05-06T18:35:13.978Z,22.20
2018-05-06T18:37:45.593Z,21.99
2018-05-06T18:40:24.404Z,21.98
2018-05-06T18:46:00.785Z,21.69
2018-05-06T18:48:32.254Z,21.52
2018-05-06T18:51:04.943Z,21.37
2018-05-06T18:53:33.295Z,21.08
2018-05-06T18:56:01.690Z,21.16
2018-05-06T18:58:30.053Z,21.06
2018-05-06T19:00:58.426Z,20.85
2018-05-06T19:03:26.835Z,20.75
2018-05-06T19:05:55.125Z,20.70
2018-05-06T19:08:25.075Z,20.52
2018-05-06T19:10:53.333Z,20.37
2018-05-06T19:13:21.608Z,20.35
2018-05-06T19:15:49.907Z,20.08
2018-05-06T19:18:18.959Z,20.14
2018-05-06T19:20:47.226Z,20.04
2018-05-06T19:23:15.523Z,20.00
2018-05-06T19:25:43.823Z,19.83
2018-05-06T19:28:12.868Z,19.52
2018-05-06T19:30:41.184Z,19.43
2018-05-06T19:33:09.458Z,19.39
2018-05-06T19:35:37.739Z,19.39
2018-05-06T19:38:06.042Z,19.28
2018-05-06T19:40:35.064Z,19.28
2018-05-06T19:43:03.346Z,19.07
2018-05-06T19:45:31.643Z,19.04
2018-05-06T19:47:59.959Z,18.89
2018-05-06T19:50:28.239Z,18.96
2018-05-06T19:52:57.271Z,18.82
2018-05-06T19:55:25.545Z,18.58
2018-05-06T19:57:53.854Z,18.58
2018-05-06T20:00:22.104Z,18.55
2018-05-06T20:02:50.401Z,18.40
2018-05-06T20:05:18.707Z,18.32
2018-05-06T20:07:46.974Z,18.16
2018-05-06T20:10:15.231Z,18.14
2018-05-06T20:12:43.524Z,18.05
2018-05-06T20:15:11.806Z,17.85
2018-05-06T20:17:40.083Z,17.81
2018-05-06T20:20:08.383Z,17.72
2018-05-06T20:22:36.631Z,17.71
2018-05-06T20:25:04.919Z,17.65
2018-05-06T20:27:33.219Z,17.61
2018-05-06T20:30:01.485Z,17.44
2018-05-06T20:32:29.774Z,17.39
2018-05-06T20:34:58.086Z,17.54
2018-05-06T20:37:26.360Z,17.44
2018-05-06T20:39:54.644Z,17.39
2018-05-06T20:42:22.951Z,17.36
2018-05-06T20:44:51.225Z,17.07
2018-05-06T20:47:19.533Z,16.84
2018-05-06T20:49:47.822Z,16.91
2018-05-06T20:52:16.097Z,16.75
2018-05-06T20:54:45.300Z,16.93
2018-05-06T20:57:13.581Z,16.77
2018-05-06T20:59:42.631Z,16.75
2018-05-06T21:02:10.894Z,16.84
2018-05-06T21:04:39.163Z,16.78
2018-05-06T21:07:07.442Z,16.66
2018-05-06T21:09:35.727Z,16.53
2018-05-06T21:12:04.027Z,16.46
2018-05-06T21:14:32.306Z,16.25
2018-05-06T21:17:00.573Z,16.25
2018-05-06T21:19:28.843Z,16.14
2018-05-06T21:21:57.124Z,16.05
2018-05-06T21:24:25.381Z,16.04
2018-05-06T21:26:53.668Z,16.13
2018-05-06T21:29:21.932Z,16.00
2018-05-06T21:31:50.195Z,15.89
2018-05-06T21:34:19.261Z,15.67
2018-05-06T21:36:47.624Z,15.77
2018-05-06T21:39:15.876Z,15.73
2018-05-06T21:41:44.126Z,15.78
2018-05-06T21:44:13.172Z,15.70
2018-05-06T21:46:41.458Z,15.61
2018-05-06T21:49:09.734Z,15.50
2018-05-06T21:51:37.996Z,15.45
2018-05-06T21:54:06.277Z,15.34
2018-05-06T21:56:34.540Z,15.25
2018-05-06T21:59:02.825Z,15.31
2018-05-06T22:01:32.026Z,15.30
2018-05-06T22:04:00.304Z,15.22
2018-05-06T22:06:28.575Z,15.03
2018-05-06T22:08:56.863Z,15.12
2018-05-06T22:11:25.095Z,15.04
2018-05-06T22:13:54.160Z,14.97
2018-05-06T22:16:22.435Z,14.82
2018-05-06T22:18:50.728Z,14.80
2018-05-06T22:21:18.997Z,14.55
2018-05-06T22:23:47.268Z,14.65
2018-05-06T22:26:15.576Z,14.60
2018-05-06T22:28:44.615Z,14.51
2018-05-06T22:31:12.880Z,14.70
2018-05-06T22:33:41.168Z,14.64
2018-05-06T22:36:09.444Z,14.54
2018-05-06T22:38:37.697Z,14.42
2018-05-06T22:41:07.030Z,14.22
2018-05-06T22:43:35.276Z,14.19
2018-05-06T22:46:03.591Z,14.13
2018-05-06T22:48:31.848Z,14.05
2018-05-06T22:51:00.127Z,14.18
2018-05-06T22:53:28.390Z,14.16
2018-05-06T22:55:56.703Z,14.20
2018-05-06T22:58:24.976Z,14.07
2018-05-06T23:00:53.276Z,14.08
2018-05-06T23:03:21.554Z,14.00
2018-05-06T23:05:49.824Z,13.78
2018-05-06T23:08:18.115Z,13.96
2018-05-06T23:10:46.379Z,13.87
2018-05-06T23:13:14.683Z,13.88
2018-05-06T23:15:42.948Z,13.91
2018-05-06T23:18:11.210Z,13.89
2018-05-06T23:20:39.487Z,13.83
2018-05-06T23:23:07.767Z,13.66
2018-05-06T23:25:36.052Z,13.62
2018-05-06T23:28:04.324Z,13.66
2018-05-06T23:30:32.606Z,13.59
2018-05-06T23:33:00.897Z,13.43
2018-05-06T23:35:29.200Z,13.49
2018-05-06T23:37:57.473Z,13.37
2018-05-06T23:40:26.513Z,13.33
2018-05-06T23:42:54.798Z,13.29
2018-05-06T23:45:23.073Z,13.34
2018-05-06T23:47:51.347Z,13.31
2018-05-06T23:50:19.624Z,13.19
2018-05-06T23:52:47.916Z,13.21
2018-05-06T23:55:16.187Z,13.26
2018-05-06T23:57:44.454Z,13.26
